sensor_id;sensor_type;location;lat;lon;timestamp;P1;durP1;ratioP1;P2;durP2;ratioP2
8708;SDS011;4391;48.678;9.280;2023-06-19T00:00:17;10.27;;;4.95;;
8708;SDS011;4391;48.678;9.280;2023-06-19T00:02:44;7.88;;;5.15;;
8708;SDS011;4391;48.678;9.280;2023-06-19T00:05:12;7.65;;;4.70;;
8708;SDS011;4391;48.678;9.280;2023-06-19T00:07:39;8.77;;;4.63;;
8708;SDS011;4391;48.678;9.280;2023-06-19T00:10:08;7.90;;;4.50;;
8708;SDS011;4391;48.678;9.280;2023-06-19T00:12:35;8.27;;;4.60;;
8708;SDS011;4391;48.678;9.280;2023-06-19T00:15:02;6.68;;;4.28;;
8708;SDS011;4391;48.678;9.280;2023-06-19T00:17:29;6.88;;;4.70;;
8708;SDS011;4391;48.678;9.280;2023-06-19T00:19:56;8.80;;;4.07;;
8708;SDS011;4391;48.678;9.280;2023-06-19T00:22:24;9.30;;;4.80;;
8708;SDS011;4391;48.678;9.280;2023-06-19T00:24:51;7.45;;;4.53;;
8708;SDS011;4391;48.678;9.280;2023-06-19T00:27:19;7.18;;;4.53;;
8708;SDS011;4391;48.678;9.280;2023-06-19T00:29:46;10.05;;;5.32;;
8708;SDS011;4391;48.678;9.280;2023-06-19T00:32:13;9.30;;;4.90;;
8708;SDS011;4391;48.678;9.280;2023-06-19T00:34:40;9.55;;;5.18;;
8708;SDS011;4391;48.678;9.280;2023-06-19T00:37:08;8.30;;;4.68;;
8708;SDS011;4391;48.678;9.280;2023-06-19T00:39:38;7.72;;;4.57;;
8708;SDS011;4391;48.678;9.280;2023-06-19T00:42:05;9.60;;;5.03;;
8708;SDS011;4391;48.678;9.280;2023-06-19T00:44:33;7.90;;;4.73;;
8708;SDS011;4391;48.678;9.280;2023-06-19T00:47:01;7.82;;;4.45;;
8708;SDS011;4391;48.678;9.280;2023-06-19T00:49:30;9.27;;;4.72;;
8708;SDS011;4391;48.678;9.280;2023-06-19T00:51:58;7.43;;;4.80;;
8708;SDS011;4391;48.678;9.280;2023-06-19T00:54:25;7.72;;;5.07;;
8708;SDS011;4391;48.678;9.280;2023-06-19T00:56:52;8.60;;;5.13;;
8708;SDS011;4391;48.678;9.280;2023-06-19T00:59:20;7.78;;;4.50;;
8708;SDS011;4391;48.678;9.280;2023-06-19T01:01:48;6.45;;;4.07;;
8708;SDS011;4391;48.678;9.280;2023-06-19T01:04:15;8.80;;;4.63;;
8708;SDS011;4391;48.678;9.280;2023-06-19T01:06:43;7.15;;;4.60;;
8708;SDS011;4391;48.678;9.280;2023-06-19T01:09:24;13.10;;;5.17;;
8708;SDS011;4391;48.678;9.280;2023-06-19T01:11:56;8.93;;;4.72;;
8708;SDS011;4391;48.678;9.280;2023-06-19T01:14:28;7.45;;;4.90;;
8708;SDS011;4391;48.678;9.280;2023-06-19T01:17:03;7.07;;;4.72;;
8708;SDS011;4391;48.678;9.280;2023-06-19T01:19:31;8.43;;;4.97;;
8708;SDS011;4391;48.678;9.280;2023-06-19T01:22:01;9.03;;;5.50;;
8708;SDS011;4391;48.678;9.280;2023-06-19T01:24:29;8.07;;;4.78;;
8708;SDS011;4391;48.678;9.280;2023-06-19T01:26:55;7.95;;;5.10;;
8708;SDS011;4391;48.678;9.280;2023-06-19T01:29:23;9.20;;;5.25;;
8708;SDS011;4391;48.678;9.280;2023-06-19T01:31:50;8.88;;;4.53;;
8708;SDS011;4391;48.678;9.280;2023-06-19T01:34:21;10.17;;;4.80;;
8708;SDS011;4391;48.678;9.280;2023-06-19T01:36:51;8.27;;;5.40;;
8708;SDS011;4391;48.678;9.280;2023-06-19T01:39:23;7.78;;;5.15;;
8708;SDS011;4391;48.678;9.280;2023-06-19T01:41:51;8.32;;;5.10;;
8708;SDS011;4391;48.678;9.280;2023-06-19T01:44:20;7.35;;;4.38;;
8708;SDS011;4391;48.678;9.280;2023-06-19T01:46:47;7.27;;;4.80;;
8708;SDS011;4391;48.678;9.280;2023-06-19T01:49:15;9.75;;;5.03;;
8708;SDS011;4391;48.678;9.280;2023-06-19T01:51:42;9.65;;;4.85;;
8708;SDS011;4391;48.678;9.280;2023-06-19T01:54:09;8.95;;;5.10;;
8708;SDS011;4391;48.678;9.280;2023-06-19T01:56:37;7.35;;;5.05;;
8708;SDS011;4391;48.678;9.280;2023-06-19T01:59:04;7.73;;;5.00;;
8708;SDS011;4391;48.678;9.280;2023-06-19T02:01:31;9.13;;;4.63;;
8708;SDS011;4391;48.678;9.280;2023-06-19T02:03:58;8.93;;;4.82;;
8708;SDS011;4391;48.678;9.280;2023-06-19T02:06:25;8.05;;;4.60;;
8708;SDS011;4391;48.678;9.280;2023-06-19T02:08:51;7.60;;;4.10;;
8708;SDS011;4391;48.678;9.280;2023-06-19T02:11:18;6.83;;;4.10;;
8708;SDS011;4391;48.678;9.280;2023-06-19T02:13:47;11.88;;;4.90;;
8708;SDS011;4391;48.678;9.280;2023-06-19T02:16:13;6.57;;;3.92;;
8708;SDS011;4391;48.678;9.280;2023-06-19T02:18:40;6.72;;;4.05;;
8708;SDS011;4391;48.678;9.280;2023-06-19T02:21:07;6.28;;;3.78;;
8708;SDS011;4391;48.678;9.280;2023-06-19T02:23:34;7.97;;;3.83;;
8708;SDS011;4391;48.678;9.280;2023-06-19T02:26:01;6.93;;;3.80;;
8708;SDS011;4391;48.678;9.280;2023-06-19T02:28:28;7.15;;;3.40;;
8708;SDS011;4391;48.678;9.280;2023-06-19T02:30:56;6.78;;;4.07;;
8708;SDS011;4391;48.678;9.280;2023-06-19T02:33:23;7.32;;;3.90;;
8708;SDS011;4391;48.678;9.280;2023-06-19T02:35:50;9.07;;;3.50;;
8708;SDS011;4391;48.678;9.280;2023-06-19T02:38:17;9.38;;;3.47;;
8708;SDS011;4391;48.678;9.280;2023-06-19T02:40:46;7.43;;;3.85;;
8708;SDS011;4391;48.678;9.280;2023-06-19T02:43:13;7.15;;;3.75;;
8708;SDS011;4391;48.678;9.280;2023-06-19T02:45:40;6.45;;;3.38;;
8708;SDS011;4391;48.678;9.280;2023-06-19T02:48:08;10.07;;;4.00;;
8708;SDS011;4391;48.678;9.280;2023-06-19T02:50:36;8.80;;;4.43;;
8708;SDS011;4391;48.678;9.280;2023-06-19T02:53:02;7.88;;;4.25;;
8708;SDS011;4391;48.678;9.280;2023-06-19T02:55:29;7.05;;;4.00;;
8708;SDS011;4391;48.678;9.280;2023-06-19T02:57:56;7.82;;;4.30;;
8708;SDS011;4391;48.678;9.280;2023-06-19T03:00:23;7.53;;;4.37;;
8708;SDS011;4391;48.678;9.280;2023-06-19T03:02:50;7.95;;;4.32;;
8708;SDS011;4391;48.678;9.280;2023-06-19T03:05:18;6.78;;;4.13;;
8708;SDS011;4391;48.678;9.280;2023-06-19T03:07:45;9.02;;;4.20;;
8708;SDS011;4391;48.678;9.280;2023-06-19T03:10:12;7.65;;;3.95;;
8708;SDS011;4391;48.678;9.280;2023-06-19T03:12:38;7.43;;;3.90;;
8708;SDS011;4391;48.678;9.280;2023-06-19T03:15:06;6.97;;;3.80;;
8708;SDS011;4391;48.678;9.280;2023-06-19T03:17:33;7.75;;;4.00;;
8708;SDS011;4391;48.678;9.280;2023-06-19T03:20:00;7.05;;;4.05;;
8708;SDS011;4391;48.678;9.280;2023-06-19T03:22:28;7.80;;;4.20;;
8708;SDS011;4391;48.678;9.280;2023-06-19T03:24:55;8.17;;;3.57;;
8708;SDS011;4391;48.678;9.280;2023-06-19T03:27:22;6.82;;;3.90;;
8708;SDS011;4391;48.678;9.280;2023-06-19T03:29:49;7.82;;;4.10;;
8708;SDS011;4391;48.678;9.280;2023-06-19T03:32:16;6.30;;;3.78;;
8708;SDS011;4391;48.678;9.280;2023-06-19T03:34:44;6.28;;;3.80;;
8708;SDS011;4391;48.678;9.280;2023-06-19T03:37:10;6.03;;;3.47;;
8708;SDS011;4391;48.678;9.280;2023-06-19T03:39:39;7.65;;;3.80;;
8708;SDS011;4391;48.678;9.280;2023-06-19T03:42:06;6.22;;;3.55;;
8708;SDS011;4391;48.678;9.280;2023-06-19T03:44:36;6.28;;;3.58;;
8708;SDS011;4391;48.678;9.280;2023-06-19T03:47:03;8.57;;;3.85;;
8708;SDS011;4391;48.678;9.280;2023-06-19T03:49:30;7.43;;;3.60;;
8708;SDS011;4391;48.678;9.280;2023-06-19T03:51:57;9.00;;;3.70;;
8708;SDS011;4391;48.678;9.280;2023-06-19T03:54:24;7.55;;;3.50;;
8708;SDS011;4391;48.678;9.280;2023-06-19T03:56:52;9.23;;;4.07;;
8708;SDS011;4391;48.678;9.280;2023-06-19T03:59:19;8.10;;;3.78;;
8708;SDS011;4391;48.678;9.280;2023-06-19T04:01:46;9.30;;;4.13;;
8708;SDS011;4391;48.678;9.280;2023-06-19T04:04:13;6.63;;;3.83;;
8708;SDS011;4391;48.678;9.280;2023-06-19T04:06:40;8.80;;;3.95;;
8708;SDS011;4391;48.678;9.280;2023-06-19T04:09:06;7.05;;;4.00;;
8708;SDS011;4391;48.678;9.280;2023-06-19T04:11:34;7.30;;;3.97;;
8708;SDS011;4391;48.678;9.280;2023-06-19T04:14:02;8.30;;;4.50;;
8708;SDS011;4391;48.678;9.280;2023-06-19T04:16:29;6.65;;;4.30;;
8708;SDS011;4391;48.678;9.280;2023-06-19T04:18:56;7.80;;;4.28;;
8708;SDS011;4391;48.678;9.280;2023-06-19T04:21:22;9.05;;;4.65;;
8708;SDS011;4391;48.678;9.280;2023-06-19T04:23:49;8.02;;;3.85;;
8708;SDS011;4391;48.678;9.280;2023-06-19T04:26:16;7.37;;;3.60;;
8708;SDS011;4391;48.678;9.280;2023-06-19T04:28:44;8.55;;;3.63;;
8708;SDS011;4391;48.678;9.280;2023-06-19T04:31:12;6.35;;;3.95;;
8708;SDS011;4391;48.678;9.280;2023-06-19T04:33:43;6.22;;;3.42;;
8708;SDS011;4391;48.678;9.280;2023-06-19T04:36:09;8.93;;;3.53;;
8708;SDS011;4391;48.678;9.280;2023-06-19T04:38:36;6.17;;;3.40;;
8708;SDS011;4391;48.678;9.280;2023-06-19T04:41:03;5.82;;;3.10;;
8708;SDS011;4391;48.678;9.280;2023-06-19T04:43:30;6.03;;;2.92;;
8708;SDS011;4391;48.678;9.280;2023-06-19T04:45:58;6.15;;;2.95;;
8708;SDS011;4391;48.678;9.280;2023-06-19T04:48:27;5.90;;;3.35;;
8708;SDS011;4391;48.678;9.280;2023-06-19T04:50:54;5.43;;;2.97;;
8708;SDS011;4391;48.678;9.280;2023-06-19T04:53:22;5.20;;;3.03;;
8708;SDS011;4391;48.678;9.280;2023-06-19T04:55:49;5.47;;;3.13;;
8708;SDS011;4391;48.678;9.280;2023-06-19T04:58:16;7.03;;;2.92;;
8708;SDS011;4391;48.678;9.280;2023-06-19T05:00:43;5.75;;;2.50;;
8708;SDS011;4391;48.678;9.280;2023-06-19T05:03:10;5.80;;;2.67;;
8708;SDS011;4391;48.678;9.280;2023-06-19T05:05:40;4.75;;;2.80;;
8708;SDS011;4391;48.678;9.280;2023-06-19T05:08:07;7.50;;;2.45;;
8708;SDS011;4391;48.678;9.280;2023-06-19T05:10:34;5.03;;;2.40;;
8708;SDS011;4391;48.678;9.280;2023-06-19T05:13:00;4.30;;;2.40;;
8708;SDS011;4391;48.678;9.280;2023-06-19T05:15:28;6.93;;;2.97;;
8708;SDS011;4391;48.678;9.280;2023-06-19T05:17:55;7.30;;;3.00;;
8708;SDS011;4391;48.678;9.280;2023-06-19T05:20:22;4.93;;;2.50;;
8708;SDS011;4391;48.678;9.280;2023-06-19T05:22:50;6.05;;;2.70;;
8708;SDS011;4391;48.678;9.280;2023-06-19T05:25:17;5.75;;;2.58;;
8708;SDS011;4391;48.678;9.280;2023-06-19T05:27:43;7.10;;;2.37;;
8708;SDS011;4391;48.678;9.280;2023-06-19T05:30:11;5.05;;;2.78;;
8708;SDS011;4391;48.678;9.280;2023-06-19T05:32:38;5.18;;;2.58;;
8708;SDS011;4391;48.678;9.280;2023-06-19T05:35:05;4.53;;;2.20;;
8708;SDS011;4391;48.678;9.280;2023-06-19T05:37:32;5.93;;;2.78;;
8708;SDS011;4391;48.678;9.280;2023-06-19T05:40:01;4.90;;;2.60;;
8708;SDS011;4391;48.678;9.280;2023-06-19T05:42:28;4.80;;;2.72;;
8708;SDS011;4391;48.678;9.280;2023-06-19T05:44:55;6.15;;;2.53;;
8708;SDS011;4391;48.678;9.280;2023-06-19T05:47:22;9.45;;;2.88;;
8708;SDS011;4391;48.678;9.280;2023-06-19T05:49:50;5.40;;;2.90;;
8708;SDS011;4391;48.678;9.280;2023-06-19T05:52:17;5.93;;;3.03;;
8708;SDS011;4391;48.678;9.280;2023-06-19T05:54:45;5.22;;;2.63;;
8708;SDS011;4391;48.678;9.280;2023-06-19T05:57:13;4.68;;;2.40;;
8708;SDS011;4391;48.678;9.280;2023-06-19T05:59:41;6.82;;;2.85;;
8708;SDS011;4391;48.678;9.280;2023-06-19T06:02:08;4.95;;;2.80;;
8708;SDS011;4391;48.678;9.280;2023-06-19T06:04:34;5.23;;;2.77;;
8708;SDS011;4391;48.678;9.280;2023-06-19T06:07:01;8.23;;;3.00;;
8708;SDS011;4391;48.678;9.280;2023-06-19T06:09:28;6.07;;;3.28;;
8708;SDS011;4391;48.678;9.280;2023-06-19T06:11:55;6.20;;;3.03;;
8708;SDS011;4391;48.678;9.280;2023-06-19T06:14:23;6.22;;;2.92;;
8708;SDS011;4391;48.678;9.280;2023-06-19T06:16:50;6.23;;;2.90;;
8708;SDS011;4391;48.678;9.280;2023-06-19T06:19:18;7.28;;;3.03;;
8708;SDS011;4391;48.678;9.280;2023-06-19T06:21:45;6.63;;;2.80;;
8708;SDS011;4391;48.678;9.280;2023-06-19T06:24:12;6.28;;;3.08;;
8708;SDS011;4391;48.678;9.280;2023-06-19T06:26:39;5.25;;;2.55;;
8708;SDS011;4391;48.678;9.280;2023-06-19T06:29:06;8.97;;;3.10;;
8708;SDS011;4391;48.678;9.280;2023-06-19T06:31:38;6.65;;;3.20;;
8708;SDS011;4391;48.678;9.280;2023-06-19T06:34:06;5.85;;;2.70;;
8708;SDS011;4391;48.678;9.280;2023-06-19T06:36:33;5.93;;;3.15;;
8708;SDS011;4391;48.678;9.280;2023-06-19T06:39:00;5.50;;;2.72;;
8708;SDS011;4391;48.678;9.280;2023-06-19T06:41:27;5.63;;;2.80;;
8708;SDS011;4391;48.678;9.280;2023-06-19T06:43:54;5.45;;;2.55;;
8708;SDS011;4391;48.678;9.280;2023-06-19T06:46:21;5.75;;;2.83;;
8708;SDS011;4391;48.678;9.280;2023-06-19T06:48:50;5.65;;;2.60;;
8708;SDS011;4391;48.678;9.280;2023-06-19T06:51:17;5.65;;;2.45;;
8708;SDS011;4391;48.678;9.280;2023-06-19T06:53:44;5.03;;;2.30;;
8708;SDS011;4391;48.678;9.280;2023-06-19T06:56:11;4.65;;;2.10;;
8708;SDS011;4391;48.678;9.280;2023-06-19T06:58:38;5.57;;;2.30;;
8708;SDS011;4391;48.678;9.280;2023-06-19T07:01:05;5.70;;;2.53;;
8708;SDS011;4391;48.678;9.280;2023-06-19T07:03:32;4.90;;;2.38;;
8708;SDS011;4391;48.678;9.280;2023-06-19T07:06:00;5.10;;;2.00;;
8708;SDS011;4391;48.678;9.280;2023-06-19T07:08:27;4.43;;;2.30;;
8708;SDS011;4391;48.678;9.280;2023-06-19T07:10:54;4.18;;;1.98;;
8708;SDS011;4391;48.678;9.280;2023-06-19T07:13:21;5.30;;;2.10;;
8708;SDS011;4391;48.678;9.280;2023-06-19T07:15:48;4.22;;;2.00;;
8708;SDS011;4391;48.678;9.280;2023-06-19T07:18:15;4.07;;;2.10;;
8708;SDS011;4391;48.678;9.280;2023-06-19T07:20:41;4.13;;;2.13;;
8708;SDS011;4391;48.678;9.280;2023-06-19T07:23:10;4.85;;;1.90;;
8708;SDS011;4391;48.678;9.280;2023-06-19T07:25:37;4.10;;;1.90;;
8708;SDS011;4391;48.678;9.280;2023-06-19T07:28:03;4.95;;;2.13;;
8708;SDS011;4391;48.678;9.280;2023-06-19T07:30:30;4.10;;;2.00;;
8708;SDS011;4391;48.678;9.280;2023-06-19T07:32:57;4.63;;;1.60;;
8708;SDS011;4391;48.678;9.280;2023-06-19T07:35:24;4.50;;;1.60;;
8708;SDS011;4391;48.678;9.280;2023-06-19T07:37:51;3.50;;;1.90;;
8708;SDS011;4391;48.678;9.280;2023-06-19T07:40:19;3.75;;;1.80;;
8708;SDS011;4391;48.678;9.280;2023-06-19T07:42:46;4.23;;;2.00;;
8708;SDS011;4391;48.678;9.280;2023-06-19T07:45:12;5.85;;;1.73;;
8708;SDS011;4391;48.678;9.280;2023-06-19T07:47:39;3.65;;;1.70;;
8708;SDS011;4391;48.678;9.280;2023-06-19T07:50:07;4.00;;;1.98;;
8708;SDS011;4391;48.678;9.280;2023-06-19T07:52:34;4.28;;;1.63;;
8708;SDS011;4391;48.678;9.280;2023-06-19T07:55:01;4.80;;;1.70;;
8708;SDS011;4391;48.678;9.280;2023-06-19T07:57:29;5.22;;;2.40;;
8708;SDS011;4391;48.678;9.280;2023-06-19T07:59:56;4.15;;;1.90;;
8708;SDS011;4391;48.678;9.280;2023-06-19T08:02:23;4.22;;;1.77;;
8708;SDS011;4391;48.678;9.280;2023-06-19T08:04:50;3.78;;;2.00;;
8708;SDS011;4391;48.678;9.280;2023-06-19T08:07:16;4.03;;;2.20;;
8708;SDS011;4391;48.678;9.280;2023-06-19T08:09:43;3.85;;;1.80;;
8708;SDS011;4391;48.678;9.280;2023-06-19T08:12:10;4.65;;;1.80;;
8708;SDS011;4391;48.678;9.280;2023-06-19T08:14:38;3.60;;;1.55;;
8708;SDS011;4391;48.678;9.280;2023-06-19T08:17:05;5.43;;;1.98;;
8708;SDS011;4391;48.678;9.280;2023-06-19T08:19:32;5.83;;;2.23;;
8708;SDS011;4391;48.678;9.280;2023-06-19T08:21:59;6.43;;;2.03;;
8708;SDS011;4391;48.678;9.280;2023-06-19T08:24:26;3.70;;;1.88;;
8708;SDS011;4391;48.678;9.280;2023-06-19T08:26:53;3.90;;;1.77;;
8708;SDS011;4391;48.678;9.280;2023-06-19T08:29:20;4.50;;;1.90;;
8708;SDS011;4391;48.678;9.280;2023-06-19T08:31:49;4.37;;;1.90;;
8708;SDS011;4391;48.678;9.280;2023-06-19T08:34:16;8.00;;;2.40;;
8708;SDS011;4391;48.678;9.280;2023-06-19T08:36:42;3.42;;;1.67;;
8708;SDS011;4391;48.678;9.280;2023-06-19T08:39:09;4.00;;;2.00;;
8708;SDS011;4391;48.678;9.280;2023-06-19T08:41:36;4.22;;;2.00;;
8708;SDS011;4391;48.678;9.280;2023-06-19T08:44:03;5.20;;;1.93;;
8708;SDS011;4391;48.678;9.280;2023-06-19T08:46:30;6.47;;;2.00;;
8708;SDS011;4391;48.678;9.280;2023-06-19T08:48:59;3.90;;;1.75;;
8708;SDS011;4391;48.678;9.280;2023-06-19T08:51:26;4.03;;;1.67;;
8708;SDS011;4391;48.678;9.280;2023-06-19T08:53:56;5.43;;;1.92;;
8708;SDS011;4391;48.678;9.280;2023-06-19T08:56:26;3.63;;;1.90;;
8708;SDS011;4391;48.678;9.280;2023-06-19T08:58:53;4.10;;;1.40;;
8708;SDS011;4391;48.678;9.280;2023-06-19T09:01:20;3.80;;;1.60;;
8708;SDS011;4391;48.678;9.280;2023-06-19T09:03:48;4.53;;;1.58;;
8708;SDS011;4391;48.678;9.280;2023-06-19T09:06:18;4.80;;;1.80;;
8708;SDS011;4391;48.678;9.280;2023-06-19T09:08:45;3.60;;;1.70;;
8708;SDS011;4391;48.678;9.280;2023-06-19T09:11:12;3.80;;;1.60;;
8708;SDS011;4391;48.678;9.280;2023-06-19T09:13:45;4.05;;;1.60;;
8708;SDS011;4391;48.678;9.280;2023-06-19T09:16:22;4.57;;;1.90;;
8708;SDS011;4391;48.678;9.280;2023-06-19T09:18:49;4.15;;;1.75;;
8708;SDS011;4391;48.678;9.280;2023-06-19T09:21:16;4.60;;;1.80;;
8708;SDS011;4391;48.678;9.280;2023-06-19T09:23:47;3.60;;;1.67;;
8708;SDS011;4391;48.678;9.280;2023-06-19T09:26:16;3.55;;;1.48;;
8708;SDS011;4391;48.678;9.280;2023-06-19T09:28:45;3.30;;;1.77;;
8708;SDS011;4391;48.678;9.280;2023-06-19T09:31:15;3.85;;;1.95;;
8708;SDS011;4391;48.678;9.280;2023-06-19T09:33:42;4.37;;;1.77;;
8708;SDS011;4391;48.678;9.280;2023-06-19T09:36:08;5.07;;;2.00;;
8708;SDS011;4391;48.678;9.280;2023-06-19T09:38:37;7.43;;;1.80;;
8708;SDS011;4391;48.678;9.280;2023-06-19T09:41:05;4.22;;;2.13;;
8708;SDS011;4391;48.678;9.280;2023-06-19T09:43:33;3.90;;;1.80;;
8708;SDS011;4391;48.678;9.280;2023-06-19T09:46:03;3.67;;;2.10;;
8708;SDS011;4391;48.678;9.280;2023-06-19T09:48:31;4.17;;;2.00;;
8708;SDS011;4391;48.678;9.280;2023-06-19T09:51:00;3.63;;;1.50;;
8708;SDS011;4391;48.678;9.280;2023-06-19T09:53:31;4.10;;;1.40;;
8708;SDS011;4391;48.678;9.280;2023-06-19T09:56:00;2.90;;;1.23;;
8708;SDS011;4391;48.678;9.280;2023-06-19T09:58:27;3.17;;;1.33;;
8708;SDS011;4391;48.678;9.280;2023-06-19T10:00:56;4.30;;;1.40;;
8708;SDS011;4391;48.678;9.280;2023-06-19T10:03:29;2.77;;;1.13;;
8708;SDS011;4391;48.678;9.280;2023-06-19T10:05:58;2.73;;;1.20;;
8708;SDS011;4391;48.678;9.280;2023-06-19T10:08:27;3.08;;;1.30;;
8708;SDS011;4391;48.678;9.280;2023-06-19T10:10:55;2.83;;;1.33;;
8708;SDS011;4391;48.678;9.280;2023-06-19T10:13:30;3.15;;;1.40;;
8708;SDS011;4391;48.678;9.280;2023-06-19T10:15:58;3.88;;;1.50;;
8708;SDS011;4391;48.678;9.280;2023-06-19T10:18:24;3.40;;;1.30;;
8708;SDS011;4391;48.678;9.280;2023-06-19T10:20:52;3.40;;;1.60;;
8708;SDS011;4391;48.678;9.280;2023-06-19T10:23:20;2.47;;;1.20;;
8708;SDS011;4391;48.678;9.280;2023-06-19T10:25:54;3.10;;;1.50;;
8708;SDS011;4391;48.678;9.280;2023-06-19T10:28:22;5.03;;;1.30;;
8708;SDS011;4391;48.678;9.280;2023-06-19T10:30:52;3.30;;;1.30;;
8708;SDS011;4391;48.678;9.280;2023-06-19T10:33:20;3.00;;;1.30;;
8708;SDS011;4391;48.678;9.280;2023-06-19T10:35:47;2.90;;;1.40;;
8708;SDS011;4391;48.678;9.280;2023-06-19T10:38:14;3.08;;;1.33;;
8708;SDS011;4391;48.678;9.280;2023-06-19T10:40:42;3.58;;;1.50;;
8708;SDS011;4391;48.678;9.280;2023-06-19T10:43:09;3.20;;;1.48;;
8708;SDS011;4391;48.678;9.280;2023-06-19T10:45:38;3.10;;;1.50;;
8708;SDS011;4391;48.678;9.280;2023-06-19T10:48:05;4.28;;;1.58;;
8708;SDS011;4391;48.678;9.280;2023-06-19T10:50:35;5.55;;;1.58;;
8708;SDS011;4391;48.678;9.280;2023-06-19T10:53:08;3.25;;;1.45;;
8708;SDS011;4391;48.678;9.280;2023-06-19T10:55:35;4.57;;;1.55;;
8708;SDS011;4391;48.678;9.280;2023-06-19T10:58:01;3.08;;;1.58;;
8708;SDS011;4391;48.678;9.280;2023-06-19T11:00:29;3.40;;;1.60;;
8708;SDS011;4391;48.678;9.280;2023-06-19T11:02:58;3.30;;;1.70;;
8708;SDS011;4391;48.678;9.280;2023-06-19T11:05:25;3.00;;;1.50;;
8708;SDS011;4391;48.678;9.280;2023-06-19T11:07:53;3.70;;;1.50;;
8708;SDS011;4391;48.678;9.280;2023-06-19T11:10:21;3.17;;;1.48;;
8708;SDS011;4391;48.678;9.280;2023-06-19T11:12:50;4.75;;;1.65;;
8708;SDS011;4391;48.678;9.280;2023-06-19T11:15:20;3.22;;;1.58;;
8708;SDS011;4391;48.678;9.280;2023-06-19T11:17:55;3.50;;;1.50;;
8708;SDS011;4391;48.678;9.280;2023-06-19T11:20:23;5.10;;;1.90;;
8708;SDS011;4391;48.678;9.280;2023-06-19T11:22:54;3.50;;;1.70;;
8708;SDS011;4391;48.678;9.280;2023-06-19T11:25:22;3.47;;;1.60;;
8708;SDS011;4391;48.678;9.280;2023-06-19T11:27:49;5.22;;;1.85;;
8708;SDS011;4391;48.678;9.280;2023-06-19T11:30:17;4.57;;;1.77;;
8708;SDS011;4391;48.678;9.280;2023-06-19T11:32:46;3.47;;;1.50;;
8708;SDS011;4391;48.678;9.280;2023-06-19T11:35:15;3.58;;;1.65;;
8708;SDS011;4391;48.678;9.280;2023-06-19T11:37:43;3.75;;;1.70;;
8708;SDS011;4391;48.678;9.280;2023-06-19T11:40:10;4.47;;;1.60;;
8708;SDS011;4391;48.678;9.280;2023-06-19T11:42:46;3.50;;;1.40;;
8708;SDS011;4391;48.678;9.280;2023-06-19T11:45:14;3.93;;;1.53;;
8708;SDS011;4391;48.678;9.280;2023-06-19T11:47:44;3.00;;;1.40;;
8708;SDS011;4391;48.678;9.280;2023-06-19T11:50:12;3.80;;;1.80;;
8708;SDS011;4391;48.678;9.280;2023-06-19T11:52:41;5.65;;;1.42;;
8708;SDS011;4391;48.678;9.280;2023-06-19T11:55:12;5.03;;;1.60;;
8708;SDS011;4391;48.678;9.280;2023-06-19T11:57:41;5.25;;;1.80;;
8708;SDS011;4391;48.678;9.280;2023-06-19T12:00:15;4.00;;;1.48;;
8708;SDS011;4391;48.678;9.280;2023-06-19T12:02:43;4.57;;;1.57;;
8708;SDS011;4391;48.678;9.280;2023-06-19T12:05:11;5.20;;;1.30;;
8708;SDS011;4391;48.678;9.280;2023-06-19T12:07:39;4.70;;;1.60;;
8708;SDS011;4391;48.678;9.280;2023-06-19T12:10:08;3.17;;;1.50;;
8708;SDS011;4391;48.678;9.280;2023-06-19T12:12:39;4.90;;;1.65;;
8708;SDS011;4391;48.678;9.280;2023-06-19T12:15:06;6.15;;;1.80;;
8708;SDS011;4391;48.678;9.280;2023-06-19T12:17:34;4.18;;;1.80;;
8708;SDS011;4391;48.678;9.280;2023-06-19T12:20:01;3.45;;;1.80;;
8708;SDS011;4391;48.678;9.280;2023-06-19T12:22:30;4.17;;;1.70;;
8708;SDS011;4391;48.678;9.280;2023-06-19T12:24:57;4.90;;;1.93;;
8708;SDS011;4391;48.678;9.280;2023-06-19T12:27:26;4.97;;;2.03;;
8708;SDS011;4391;48.678;9.280;2023-06-19T12:29:52;4.60;;;2.00;;
8708;SDS011;4391;48.678;9.280;2023-06-19T12:32:20;5.15;;;1.65;;
8708;SDS011;4391;48.678;9.280;2023-06-19T12:34:47;4.38;;;1.80;;
8708;SDS011;4391;48.678;9.280;2023-06-19T12:37:14;4.63;;;2.00;;
8708;SDS011;4391;48.678;9.280;2023-06-19T12:39:42;6.70;;;1.77;;
8708;SDS011;4391;48.678;9.280;2023-06-19T12:42:09;3.00;;;1.50;;
8708;SDS011;4391;48.678;9.280;2023-06-19T12:44:41;4.32;;;1.80;;
8708;SDS011;4391;48.678;9.280;2023-06-19T12:47:09;6.20;;;2.00;;
8708;SDS011;4391;48.678;9.280;2023-06-19T12:49:36;3.72;;;1.60;;
8708;SDS011;4391;48.678;9.280;2023-06-19T12:52:03;3.03;;;1.58;;
8708;SDS011;4391;48.678;9.280;2023-06-19T12:54:31;3.42;;;1.60;;
8708;SDS011;4391;48.678;9.280;2023-06-19T12:56:58;4.10;;;1.40;;
8708;SDS011;4391;48.678;9.280;2023-06-19T12:59:25;4.43;;;1.57;;
8708;SDS011;4391;48.678;9.280;2023-06-19T13:01:55;3.38;;;1.50;;
8708;SDS011;4391;48.678;9.280;2023-06-19T13:04:25;3.08;;;1.40;;
8708;SDS011;4391;48.678;9.280;2023-06-19T13:06:52;3.40;;;1.60;;
8708;SDS011;4391;48.678;9.280;2023-06-19T13:09:19;3.13;;;1.60;;
8708;SDS011;4391;48.678;9.280;2023-06-19T13:11:46;4.82;;;1.60;;
8708;SDS011;4391;48.678;9.280;2023-06-19T13:14:13;4.33;;;1.40;;
8708;SDS011;4391;48.678;9.280;2023-06-19T13:16:40;3.07;;;1.53;;
8708;SDS011;4391;48.678;9.280;2023-06-19T13:19:08;3.15;;;1.40;;
8708;SDS011;4391;48.678;9.280;2023-06-19T13:21:35;4.53;;;1.60;;
8708;SDS011;4391;48.678;9.280;2023-06-19T13:24:02;3.95;;;1.50;;
8708;SDS011;4391;48.678;9.280;2023-06-19T13:26:29;4.35;;;1.52;;
8708;SDS011;4391;48.678;9.280;2023-06-19T13:28:56;3.72;;;1.55;;
8708;SDS011;4391;48.678;9.280;2023-06-19T13:31:24;5.13;;;1.60;;
8708;SDS011;4391;48.678;9.280;2023-06-19T13:33:51;2.80;;;1.40;;
8708;SDS011;4391;48.678;9.280;2023-06-19T13:36:19;4.47;;;1.70;;
8708;SDS011;4391;48.678;9.280;2023-06-19T13:38:46;3.25;;;1.50;;
8708;SDS011;4391;48.678;9.280;2023-06-19T13:41:13;4.18;;;1.50;;
8708;SDS011;4391;48.678;9.280;2023-06-19T13:43:40;2.83;;;1.42;;
8708;SDS011;4391;48.678;9.280;2023-06-19T13:46:07;3.83;;;1.60;;
8708;SDS011;4391;48.678;9.280;2023-06-19T13:48:34;7.45;;;1.80;;
8708;SDS011;4391;48.678;9.280;2023-06-19T13:51:01;5.90;;;1.70;;
8708;SDS011;4391;48.678;9.280;2023-06-19T13:53:29;3.30;;;1.60;;
8708;SDS011;4391;48.678;9.280;2023-06-19T13:55:57;6.43;;;1.95;;
8708;SDS011;4391;48.678;9.280;2023-06-19T13:58:27;3.88;;;1.60;;
8708;SDS011;4391;48.678;9.280;2023-06-19T14:00:58;3.67;;;1.70;;
8708;SDS011;4391;48.678;9.280;2023-06-19T14:03:25;5.03;;;1.88;;
8708;SDS011;4391;48.678;9.280;2023-06-19T14:05:52;7.03;;;1.75;;
8708;SDS011;4391;48.678;9.280;2023-06-19T14:08:19;3.90;;;1.67;;
8708;SDS011;4391;48.678;9.280;2023-06-19T14:10:47;4.43;;;1.70;;
8708;SDS011;4391;48.678;9.280;2023-06-19T14:13:14;3.72;;;1.60;;
8708;SDS011;4391;48.678;9.280;2023-06-19T14:15:41;4.22;;;1.60;;
8708;SDS011;4391;48.678;9.280;2023-06-19T14:18:08;5.03;;;1.90;;
8708;SDS011;4391;48.678;9.280;2023-06-19T14:20:35;4.20;;;1.88;;
8708;SDS011;4391;48.678;9.280;2023-06-19T14:23:02;4.85;;;1.73;;
8708;SDS011;4391;48.678;9.280;2023-06-19T14:25:29;4.53;;;1.70;;
8708;SDS011;4391;48.678;9.280;2023-06-19T14:27:57;4.13;;;1.85;;
8708;SDS011;4391;48.678;9.280;2023-06-19T14:30:24;4.57;;;1.90;;
8708;SDS011;4391;48.678;9.280;2023-06-19T14:32:51;5.82;;;1.80;;
8708;SDS011;4391;48.678;9.280;2023-06-19T14:35:18;5.47;;;1.65;;
8708;SDS011;4391;48.678;9.280;2023-06-19T14:37:45;3.15;;;1.60;;
8708;SDS011;4391;48.678;9.280;2023-06-19T14:40:12;3.30;;;1.70;;
8708;SDS011;4391;48.678;9.280;2023-06-19T14:42:39;6.80;;;2.07;;
8708;SDS011;4391;48.678;9.280;2023-06-19T14:45:07;5.85;;;1.67;;
8708;SDS011;4391;48.678;9.280;2023-06-19T14:47:35;4.22;;;1.60;;
8708;SDS011;4391;48.678;9.280;2023-06-19T14:50:02;5.22;;;1.70;;
8708;SDS011;4391;48.678;9.280;2023-06-19T14:52:29;5.32;;;1.90;;
8708;SDS011;4391;48.678;9.280;2023-06-19T14:54:56;4.30;;;1.80;;
8708;SDS011;4391;48.678;9.280;2023-06-19T14:57:24;4.67;;;2.00;;
8708;SDS011;4391;48.678;9.280;2023-06-19T14:59:51;4.57;;;2.20;;
8708;SDS011;4391;48.678;9.280;2023-06-19T15:02:19;4.30;;;1.90;;
8708;SDS011;4391;48.678;9.280;2023-06-19T15:04:46;6.70;;;1.95;;
8708;SDS011;4391;48.678;9.280;2023-06-19T15:07:13;4.20;;;2.08;;
8708;SDS011;4391;48.678;9.280;2023-06-19T15:09:40;3.95;;;2.00;;
8708;SDS011;4391;48.678;9.280;2023-06-19T15:12:07;4.10;;;2.17;;
8708;SDS011;4391;48.678;9.280;2023-06-19T15:14:35;4.87;;;2.20;;
8708;SDS011;4391;48.678;9.280;2023-06-19T15:17:03;4.30;;;2.50;;